Terminal Aerodrome Forecast
Issued by NWS

Home | Current Version | Previous Version | Text Only | Print | Product List | Glossary On
Versions: 1 2 3 4 5 6 7 8 9 10 11 12 13 14
554
FTUS41 KBTV 291135
TAFSLK
TAF
KSLK 291135Z 2912/3012 00000KT P6SM BKN070
     FM291400 04005KT P6SM FEW070 SCT250
     FM300000 00000KT P6SM SCT200
     FM300600 00000KT 1SM BR SCT002=

USA.gov is the U.S. government's official web portal to all federal, state and local government web resources and services.